Svitzer Stanlow — MLNF7 — position and weather

sailwx.info

Track history (hours):
 
Tides and Currents Weather Stations Pressure Air Temp Water Temp Dewpoint Dewpoint Depression Visibility Wind Speed Wind Dir Waves Ship Positions

Svitzer Stanlow

Last reported at 2014-Oct-31 10:33 UTC. Time now 2014-Oct-31 11:26 UTC.
Position N 53°23' W 003°00'.

Length 39 m.

Type: Tug. MMSI: 235010620.

Date/timePositionNaut miles runAvg speedWind from/ knotsBaromVisibWave heightAir tempDewpointWater temp
2014-Oct-31 10:33N 53°23' W 003°00'0 0.0
2014-Oct-31 09:33N 53°23' W 003°00'0 0.0
2014-Oct-31 08:33N 53°23' W 003°00'0 0.0
2014-Oct-31 07:33N 53°23' W 003°00'0 0.0
2014-Oct-31 06:33N 53°23' W 003°00'0 0.0
2014-Oct-31 05:33N 53°23' W 003°00'0 0.0
2014-Oct-31 04:33N 53°23' W 003°00'0 0.0
2014-Oct-31 03:33N 53°23' W 003°00'0 0.0
2014-Oct-31 02:33N 53°23' W 003°00'0 0.0
2014-Oct-31 01:27N 53°23' W 003°00'0 0.0
2014-Oct-31 00:33N 53°23' W 003°00'0 0.1
2014-Oct-30 23:31N 53°23' W 002°60'0 0.1
2014-Oct-30 22:30N 53°23' W 002°60'0 0.0
2014-Oct-30 21:30N 53°23' W 002°60'0 0.0
2014-Oct-30 20:30N 53°23' W 002°60'0 0.0
2014-Oct-30 19:30N 53°23' W 002°60'0 0.0
2014-Oct-30 18:30N 53°23' W 002°60'0 0.0
2014-Oct-30 17:24N 53°23' W 002°60'0 0.1
2014-Oct-30 15:27N 53°23' W 002°60'4 4.0
2014-Oct-30 14:33N 53°26' W 003°01'8 8.3
2014-Oct-30 13:33N 53°31' W 003°13'2 1.9
2014-Oct-30 12:33N 53°32' W 003°09'10 9.7
2014-Oct-30 11:32N 53°24' W 003°00'1 0.8
2014-Oct-30 10:26N 53°23' W 002°60'0 0.0
2014-Oct-30 09:32N 53°23' W 002°60'0 0.0
2014-Oct-30 08:32N 53°23' W 002°60'0 0.0
2014-Oct-30 07:32N 53°23' W 002°60'0 0.0
2014-Oct-30 06:26N 53°23' W 002°60'0 0.0
2014-Oct-30 05:32N 53°23' W 002°60'0 0.0
2014-Oct-30 04:32N 53°23' W 002°60'0 0.0
2014-Oct-30 03:26N 53°23' W 002°60'0 0.0
2014-Oct-30 02:32N 53°23' W 002°60'0 0.0
2014-Oct-30 01:32N 53°23' W 002°60'0 0.0
2014-Oct-30 00:32N 53°23' W 002°60'0 0.0
2014-Oct-29 23:32N 53°23' W 002°60'0 0.0
2014-Oct-29 22:30N 53°23' W 002°60'0 0.0
2014-Oct-29 21:29N 53°23' W 002°60'0 0.0
2014-Oct-29 20:29N 53°23' W 002°60'0 0.0
2014-Oct-29 19:29N 53°23' W 002°60'0 0.0
2014-Oct-29 18:29N 53°23' W 002°60'0 0.0
2014-Oct-29 16:29N 53°23' W 002°60'0 0.0
2014-Oct-29 15:29N 53°23' W 002°60'0 0.4
2014-Oct-29 14:32N 53°23' W 003°00'4 4.4
2014-Oct-29 13:33N 53°27' W 003°02'8 7.9
2014-Oct-29 12:32N 53°31' W 003°14'5 5.0
2014-Oct-29 11:33N 53°31' W 003°06'9 8.0
2014-Oct-29 10:29N 53°23' W 003°00'0 0.0
2014-Oct-29 09:29N 53°23' W 003°00'0 0.0
2014-Oct-29 08:23N 53°23' W 003°00'0 0.0
2014-Oct-29 07:29N 53°23' W 003°00'0 0.0
2014-Oct-29 06:29N 53°23' W 003°00'0 0.0
2014-Oct-29 05:29N 53°23' W 003°00'0 0.0
2014-Oct-29 04:29N 53°23' W 003°00'0 0.0
2014-Oct-29 03:23N 53°23' W 003°00'0 0.0
2014-Oct-29 02:29N 53°23' W 003°00'0 0.0
2014-Oct-29 01:29N 53°23' W 003°00'0 0.0
2014-Oct-29 00:29N 53°23' W 003°00'0 0.0
2014-Oct-28 23:29N 53°23' W 003°00'0 0.0
2014-Oct-28 22:29N 53°23' W 003°00'0 0.0
2014-Oct-28 21:29N 53°23' W 003°00'0 0.0
2014-Oct-28 20:17N 53°23' W 003°00'0 0.0
2014-Oct-28 19:29N 53°23' W 003°00'0 0.0
2014-Oct-28 18:29N 53°23' W 003°00'0 0.0
2014-Oct-28 17:29N 53°23' W 003°00'0 0.0
2014-Oct-28 16:28N 53°23' W 003°00'0 0.0
2014-Oct-28 15:28N 53°23' W 003°00'0 0.0
2014-Oct-28 14:28N 53°23' W 002°60'0 0.0
2014-Oct-28 13:28N 53°23' W 002°60'0 0.0
2014-Oct-28 12:28N 53°23' W 002°60'0 0.0
2014-Oct-28 11:28N 53°23' W 002°60'0 0.0
2014-Oct-28 10:16N 53°23' W 002°60'0 0.0
2014-Oct-28 09:28N 53°23' W 002°60'0 0.0
2014-Oct-28 08:28N 53°23' W 002°60'0 0.0
2014-Oct-28 07:28N 53°23' W 002°60'0 0.0
2014-Oct-28 06:22N 53°23' W 002°60'0 0.0
2014-Oct-28 05:28N 53°23' W 002°60'0 0.0
2014-Oct-28 04:28N 53°23' W 002°60'0 0.0
2014-Oct-28 03:28N 53°23' W 002°60'0 0.0
2014-Oct-28 02:28N 53°23' W 002°60'0 0.0
2014-Oct-28 01:33N 53°23' W 002°60'3 3.5
2014-Oct-28 00:33N 53°26' W 003°01'8 7.9
2014-Oct-27 23:31N 53°31' W 003°12'5 5.1
2014-Oct-27 22:33N 53°29' W 003°05'3 3.0
2014-Oct-27 21:32N 53°27' W 003°01'1 1.4
2014-Oct-27 20:31N 53°25' W 003°00'0 0.0
2014-Oct-27 19:31N 53°25' W 003°00'0 0.0
2014-Oct-27 18:31N 53°25' W 003°00'0 0.0
2014-Oct-27 17:31N 53°25' W 003°00'0 0.0
2014-Oct-27 16:31N 53°25' W 003°00'0 0.0
2014-Oct-27 15:25N 53°25' W 003°00'0 0.0
2014-Oct-27 14:31N 53°25' W 003°00'0 0.0
2014-Oct-27 13:31N 53°25' W 003°00'0 0.0
2014-Oct-27 12:25N 53°25' W 003°00'0 0.0
2014-Oct-27 11:31N 53°25' W 003°00'0 0.0
2014-Oct-27 10:31N 53°25' W 003°00'0 0.0
2014-Oct-27 09:31N 53°25' W 003°00'0 0.0
2014-Oct-27 08:25N 53°25' W 003°00'0 0.0
2014-Oct-27 07:31N 53°25' W 003°00'0 0.0
2014-Oct-27 06:31N 53°25' W 003°00'0 0.0
2014-Oct-27 05:31N 53°25' W 003°00'0 0.0
2014-Oct-27 04:27N 53°25' W 003°00'2 2.4
2014-Oct-27 03:33N 53°27' W 003°01'2 2.1
2014-Oct-27 02:30N 53°25' W 003°00'0 0.0
2014-Oct-27 01:30N 53°25' W 003°00'0 0.0
2014-Oct-27 00:30N 53°25' W 003°00'0 0.0
2014-Oct-26 23:30N 53°25' W 003°00'0 0.0
2014-Oct-26 22:30N 53°25' W 003°00'0 0.0
2014-Oct-26 21:24N 53°25' W 003°00'0 0.0
2014-Oct-26 20:30N 53°25' W 003°00'0 0.0
2014-Oct-26 19:30N 53°25' W 003°00'0 0.0
2014-Oct-26 18:30N 53°25' W 003°00'0 0.0
2014-Oct-26 17:30N 53°25' W 003°00'0 0.0
2014-Oct-26 16:30N 53°25' W 003°00'0 0.0
2014-Oct-26 15:30N 53°25' W 003°00'0 0.0
2014-Oct-26 14:30N 53°25' W 003°00'0 0.0
2014-Oct-26 13:30N 53°25' W 003°00'0 0.0
2014-Oct-26 12:30N 53°25' W 003°00'0 0.0
2014-Oct-26 11:24N 53°25' W 003°00'0 0.0
2014-Oct-26 10:29N 53°25' W 003°00'0 0.0
2014-Oct-26 09:29N 53°25' W 003°00'0 0.0
2014-Oct-26 08:29N 53°25' W 003°00'0 0.0
2014-Oct-26 07:29N 53°25' W 003°00'0 0.0
2014-Oct-26 06:29N 53°25' W 003°00'0 0.0
2014-Oct-26 05:29N 53°25' W 003°00'0 0.0
2014-Oct-26 04:29N 53°25' W 003°00'0 0.0
2014-Oct-26 03:29N 53°25' W 003°00'0 0.0
2014-Oct-26 02:29N 53°25' W 003°00'0 0.0
2014-Oct-26 01:29N 53°25' W 003°00'0 0.0
2014-Oct-26 00:29N 53°25' W 003°00'0 0.0
2014-Oct-25 23:29N 53°25' W 003°00'0 0.0
2014-Oct-25 22:29N 53°25' W 003°00'0 0.0
2014-Oct-25 21:29N 53°25' W 003°00'0 0.0
2014-Oct-25 20:17N 53°25' W 003°00'0 0.0
2014-Oct-25 19:23N 53°25' W 003°00'0 0.0
2014-Oct-25 18:29N 53°25' W 003°00'0 0.0
2014-Oct-25 17:29N 53°25' W 003°00'0 0.0
2014-Oct-25 16:29N 53°25' W 003°00'0 0.0
2014-Oct-25 15:29N 53°25' W 003°00'0 0.0
2014-Oct-25 14:29N 53°25' W 003°00'0 0.0
2014-Oct-25 13:29N 53°25' W 003°00'0 0.0
2014-Oct-25 12:29N 53°25' W 003°00'0 0.0
2014-Oct-25 11:29N 53°25' W 003°00'0 0.0
2014-Oct-25 10:17N 53°25' W 003°00'0 0.0
2014-Oct-25 09:29N 53°25' W 003°00'0 0.0
2014-Oct-25 08:29N 53°25' W 003°00'0 0.0
2014-Oct-25 07:23N 53°25' W 003°00'0 0.0
2014-Oct-25 06:23N 53°25' W 003°00'0 0.0
2014-Oct-25 05:29N 53°25' W 003°00'0 0.0
2014-Oct-25 04:29N 53°25' W 003°00'1 0.5
2014-Oct-25 03:28N 53°26' W 003°00'1 1.5
2014-Oct-25 02:29N 53°27' W 003°01'0 0.1
2014-Oct-25 01:29N 53°27' W 003°01'0 0.2
2014-Oct-25 00:32N 53°27' W 003°01'0 0.2
2014-Oct-24 23:33N 53°27' W 003°01'0 0.3
2014-Oct-24 22:26N 53°27' W 003°01'1 1.2
2014-Oct-24 21:33N 53°27' W 003°03'2 1.5
2014-Oct-24 20:27N 53°26' W 003°01'0 0.2
2014-Oct-24 19:33N 53°27' W 003°01'1 1.1
2014-Oct-24 18:30N 53°25' W 003°00'0 0.0
2014-Oct-24 17:23N 53°25' W 003°00'0 0.0
2014-Oct-24 16:29N 53°25' W 003°00'0 0.0
2014-Oct-24 15:29N 53°25' W 003°00'2 1.9
2014-Oct-24 14:33N 53°27' W 003°01'0 0.2
2014-Oct-24 13:11N 53°27' W 003°01'1 1.0
2014-Oct-24 12:28N 53°27' W 003°02'1 0.8
2014-Oct-24 11:31N 53°27' W 003°01'2 2.0
2014-Oct-24 10:33N 53°25' W 003°01'2 1.7
2014-Oct-24 09:31N 53°23' W 003°00'1 0.7
2014-Oct-24 08:34N 53°23' W 002°60'3 3.4
2014-Oct-24 07:33N 53°26' W 003°01'1 0.5
2014-Oct-24 06:30N 53°27' W 003°01'0 0.0
2014-Oct-24 05:30N 53°27' W 003°01'0 0.0
2014-Oct-24 04:30N 53°27' W 003°01'0 0.0
2014-Oct-24 03:30N 53°27' W 003°01'0 0.0
2014-Oct-24 02:30N 53°27' W 003°01'0 0.0
2014-Oct-24 01:30N 53°27' W 003°01'0 0.0
2014-Oct-24 00:30N 53°27' W 003°01'0 0.2
2014-Oct-23 23:33N 53°27' W 003°01'1 0.5
2014-Oct-23 22:30N 53°27' W 003°01'0 0.4
2014-Oct-23 21:30N 53°27' W 003°01'2 1.6
2014-Oct-23 20:32N 53°28' W 003°03'1 1.5
2014-Oct-23 19:32N 53°27' W 003°01'2 1.5
2014-Oct-23 18:23N 53°25' W 003°00'0 0.0
2014-Oct-23 17:29N 53°25' W 003°00'0 0.0
2014-Oct-23 16:23N 53°25' W 003°00'0 0.0
2014-Oct-23 15:29N 53°25' W 003°00'0 0.0
2014-Oct-23 14:29N 53°25' W 003°00'0 0.0
2014-Oct-23 13:29N 53°25' W 003°00'0 0.0
2014-Oct-23 12:29N 53°25' W 003°00'0 0.0
2014-Oct-23 11:29N 53°25' W 003°00'0 0.0
2014-Oct-23 10:23N 53°25' W 003°00'0 0.0
2014-Oct-23 09:23N 53°25' W 003°00'0 0.0
2014-Oct-23 08:23N 53°25' W 003°00'0 0.0
2014-Oct-23 07:29N 53°25' W 003°00'0 0.0
2014-Oct-23 06:17N 53°25' W 003°00'0 0.0
2014-Oct-23 05:23N 53°25' W 003°00'0 0.0
2014-Oct-23 04:29N 53°25' W 003°00'0 0.0
2014-Oct-23 03:29N 53°25' W 003°00'0 0.0
2014-Oct-23 02:29N 53°25' W 003°00'0 0.0
2014-Oct-23 01:23N 53°25' W 003°00'0 0.0
2014-Oct-23 00:23N 53°25' W 003°00'0 0.0
2014-Oct-22 23:29N 53°25' W 003°00'0 0.0
2014-Oct-22 22:29N 53°25' W 003°00'0 0.0
2014-Oct-22 21:29N 53°25' W 003°00'0 0.0
2014-Oct-22 20:23N 53°25' W 003°00'0 0.0
2014-Oct-22 19:29N 53°25' W 003°00'0 0.0
2014-Oct-22 18:29N 53°25' W 003°00'0 0.0
2014-Oct-22 17:29N 53°25' W 003°00'0 0.0
2014-Oct-22 16:23N 53°25' W 003°00'0 0.0
2014-Oct-22 15:29N 53°25' W 003°00'0 0.0
2014-Oct-22 14:29N 53°25' W 003°00'0 0.0
2014-Oct-22 13:28N 53°25' W 003°00'0 0.0
2014-Oct-22 12:28N 53°25' W 003°00'0 0.0
2014-Oct-22 11:28N 53°25' W 003°00'0 0.0
2014-Oct-22 10:28N 53°25' W 003°00'1 1.0
2014-Oct-22 09:30N 53°26' W 003°01'4 3.2
2014-Oct-22 08:18N 53°23' W 002°60'0 0.0
2014-Oct-22 07:24N 53°23' W 002°60'0 0.0
2014-Oct-22 06:30N 53°23' W 002°60'0 0.0
2014-Oct-22 05:05N 53°23' W 002°60'0 0.0
2014-Oct-22 04:29N 53°23' W 002°60'0 0.0
2014-Oct-22 03:23N 53°23' W 002°60'0 0.0
2014-Oct-22 02:29N 53°23' W 002°60'0 0.0
2014-Oct-22 01:11N 53°23' W 002°60'0 0.0
2014-Oct-22 00:17N 53°23' W 002°60'0 0.0
2014-Oct-21 23:29N 53°23' W 002°60'0 0.0
2014-Oct-21 22:23N 53°23' W 002°60'0 0.0
2014-Oct-21 21:29N 53°23' W 002°60'0 0.0
2014-Oct-21 18:33N 53°23' W 002°60'0 0.0
2014-Oct-21 17:27N 53°23' W 002°60'0 0.0
2014-Oct-21 15:21N 53°23' W 002°60'0 0.0
2014-Oct-21 14:33N 53°23' W 002°60'0 0.0
2014-Oct-21 12:15N 53°23' W 002°60'0 0.0
2014-Oct-21 11:21N 53°23' W 002°60'  
Track history (hours):
 
Tides and Currents Weather Stations Pressure Air Temp Water Temp Dewpoint Dewpoint Depression Visibility Wind Speed Wind Dir Waves Ship Positions

Svitzer Stanlow

Last reported at 2014-Oct-31 10:33 UTC. Time now 2014-Oct-31 11:26 UTC.
Position N 53°23' W 003°00'.

Length 39 m.

Type: Tug. MMSI: 235010620.

Date/timePositionNaut miles runAvg speedWind from/ knotsBaromVisibWave heightAir tempDewpointWater temp
2014-Oct-31 10:33N 53°23' W 003°00'0 0.0
2014-Oct-31 09:33N 53°23' W 003°00'0 0.0
2014-Oct-31 08:33N 53°23' W 003°00'0 0.0
2014-Oct-31 07:33N 53°23' W 003°00'0 0.0
2014-Oct-31 06:33N 53°23' W 003°00'0 0.0
2014-Oct-31 05:33N 53°23' W 003°00'0 0.0
2014-Oct-31 04:33N 53°23' W 003°00'0 0.0
2014-Oct-31 03:33N 53°23' W 003°00'0 0.0
2014-Oct-31 02:33N 53°23' W 003°00'0 0.0
2014-Oct-31 01:27N 53°23' W 003°00'0 0.0
2014-Oct-31 00:33N 53°23' W 003°00'0 0.1
2014-Oct-30 23:31N 53°23' W 002°60'0 0.1
2014-Oct-30 22:30N 53°23' W 002°60'0 0.0
2014-Oct-30 21:30N 53°23' W 002°60'0 0.0
2014-Oct-30 20:30N 53°23' W 002°60'0 0.0
2014-Oct-30 19:30N 53°23' W 002°60'0 0.0
2014-Oct-30 18:30N 53°23' W 002°60'0 0.0
2014-Oct-30 17:24N 53°23' W 002°60'0 0.1
2014-Oct-30 15:27N 53°23' W 002°60'4 4.0
2014-Oct-30 14:33N 53°26' W 003°01'8 8.3
2014-Oct-30 13:33N 53°31' W 003°13'2 1.9
2014-Oct-30 12:33N 53°32' W 003°09'10 9.7
2014-Oct-30 11:32N 53°24' W 003°00'1 0.8
2014-Oct-30 10:26N 53°23' W 002°60'0 0.0
2014-Oct-30 09:32N 53°23' W 002°60'0 0.0
2014-Oct-30 08:32N 53°23' W 002°60'0 0.0
2014-Oct-30 07:32N 53°23' W 002°60'0 0.0
2014-Oct-30 06:26N 53°23' W 002°60'0 0.0
2014-Oct-30 05:32N 53°23' W 002°60'0 0.0
2014-Oct-30 04:32N 53°23' W 002°60'0 0.0
2014-Oct-30 03:26N 53°23' W 002°60'0 0.0
2014-Oct-30 02:32N 53°23' W 002°60'0 0.0
2014-Oct-30 01:32N 53°23' W 002°60'0 0.0
2014-Oct-30 00:32N 53°23' W 002°60'0 0.0
2014-Oct-29 23:32N 53°23' W 002°60'0 0.0
2014-Oct-29 22:30N 53°23' W 002°60'0 0.0
2014-Oct-29 21:29N 53°23' W 002°60'0 0.0
2014-Oct-29 20:29N 53°23' W 002°60'0 0.0
2014-Oct-29 19:29N 53°23' W 002°60'0 0.0
2014-Oct-29 18:29N 53°23' W 002°60'0 0.0
2014-Oct-29 16:29N 53°23' W 002°60'0 0.0
2014-Oct-29 15:29N 53°23' W 002°60'0 0.4
2014-Oct-29 14:32N 53°23' W 003°00'4 4.4
2014-Oct-29 13:33N 53°27' W 003°02'8 7.9
2014-Oct-29 12:32N 53°31' W 003°14'5 5.0
2014-Oct-29 11:33N 53°31' W 003°06'9 8.0
2014-Oct-29 10:29N 53°23' W 003°00'0 0.0
2014-Oct-29 09:29N 53°23' W 003°00'0 0.0
2014-Oct-29 08:23N 53°23' W 003°00'0 0.0
2014-Oct-29 07:29N 53°23' W 003°00'0 0.0
2014-Oct-29 06:29N 53°23' W 003°00'0 0.0
2014-Oct-29 05:29N 53°23' W 003°00'0 0.0
2014-Oct-29 04:29N 53°23' W 003°00'0 0.0
2014-Oct-29 03:23N 53°23' W 003°00'0 0.0
2014-Oct-29 02:29N 53°23' W 003°00'0 0.0
2014-Oct-29 01:29N 53°23' W 003°00'0 0.0
2014-Oct-29 00:29N 53°23' W 003°00'0 0.0
2014-Oct-28 23:29N 53°23' W 003°00'0 0.0
2014-Oct-28 22:29N 53°23' W 003°00'0 0.0
2014-Oct-28 21:29N 53°23' W 003°00'0 0.0
2014-Oct-28 20:17N 53°23' W 003°00'0 0.0
2014-Oct-28 19:29N 53°23' W 003°00'0 0.0
2014-Oct-28 18:29N 53°23' W 003°00'0 0.0
2014-Oct-28 17:29N 53°23' W 003°00'0 0.0
2014-Oct-28 16:28N 53°23' W 003°00'0 0.0
2014-Oct-28 15:28N 53°23' W 003°00'0 0.0
2014-Oct-28 14:28N 53°23' W 002°60'0 0.0
2014-Oct-28 13:28N 53°23' W 002°60'0 0.0
2014-Oct-28 12:28N 53°23' W 002°60'0 0.0
2014-Oct-28 11:28N 53°23' W 002°60'0 0.0
2014-Oct-28 10:16N 53°23' W 002°60'0 0.0
2014-Oct-28 09:28N 53°23' W 002°60'0 0.0
2014-Oct-28 08:28N 53°23' W 002°60'0 0.0
2014-Oct-28 07:28N 53°23' W 002°60'0 0.0
2014-Oct-28 06:22N 53°23' W 002°60'0 0.0
2014-Oct-28 05:28N 53°23' W 002°60'0 0.0
2014-Oct-28 04:28N 53°23' W 002°60'0 0.0
2014-Oct-28 03:28N 53°23' W 002°60'0 0.0
2014-Oct-28 02:28N 53°23' W 002°60'0 0.0
2014-Oct-28 01:33N 53°23' W 002°60'3 3.5
2014-Oct-28 00:33N 53°26' W 003°01'8 7.9
2014-Oct-27 23:31N 53°31' W 003°12'5 5.1
2014-Oct-27 22:33N 53°29' W 003°05'3 3.0
2014-Oct-27 21:32N 53°27' W 003°01'1 1.4
2014-Oct-27 20:31N 53°25' W 003°00'0 0.0
2014-Oct-27 19:31N 53°25' W 003°00'0 0.0
2014-Oct-27 18:31N 53°25' W 003°00'0 0.0
2014-Oct-27 17:31N 53°25' W 003°00'0 0.0
2014-Oct-27 16:31N 53°25' W 003°00'0 0.0
2014-Oct-27 15:25N 53°25' W 003°00'0 0.0
2014-Oct-27 14:31N 53°25' W 003°00'0 0.0
2014-Oct-27 13:31N 53°25' W 003°00'0 0.0
2014-Oct-27 12:25N 53°25' W 003°00'0 0.0
2014-Oct-27 11:31N 53°25' W 003°00'0 0.0
2014-Oct-27 10:31N 53°25' W 003°00'0 0.0
2014-Oct-27 09:31N 53°25' W 003°00'0 0.0
2014-Oct-27 08:25N 53°25' W 003°00'0 0.0
2014-Oct-27 07:31N 53°25' W 003°00'0 0.0
2014-Oct-27 06:31N 53°25' W 003°00'0 0.0
2014-Oct-27 05:31N 53°25' W 003°00'0 0.0
2014-Oct-27 04:27N 53°25' W 003°00'2 2.4
2014-Oct-27 03:33N 53°27' W 003°01'2 2.1
2014-Oct-27 02:30N 53°25' W 003°00'0 0.0
2014-Oct-27 01:30N 53°25' W 003°00'0 0.0
2014-Oct-27 00:30N 53°25' W 003°00'0 0.0
2014-Oct-26 23:30N 53°25' W 003°00'0 0.0
2014-Oct-26 22:30N 53°25' W 003°00'0 0.0
2014-Oct-26 21:24N 53°25' W 003°00'0 0.0
2014-Oct-26 20:30N 53°25' W 003°00'0 0.0
2014-Oct-26 19:30N 53°25' W 003°00'0 0.0
2014-Oct-26 18:30N 53°25' W 003°00'0 0.0
2014-Oct-26 17:30N 53°25' W 003°00'0 0.0
2014-Oct-26 16:30N 53°25' W 003°00'0 0.0
2014-Oct-26 15:30N 53°25' W 003°00'0 0.0
2014-Oct-26 14:30N 53°25' W 003°00'0 0.0
2014-Oct-26 13:30N 53°25' W 003°00'0 0.0
2014-Oct-26 12:30N 53°25' W 003°00'0 0.0
2014-Oct-26 11:24N 53°25' W 003°00'0 0.0
2014-Oct-26 10:29N 53°25' W 003°00'0 0.0
2014-Oct-26 09:29N 53°25' W 003°00'0 0.0
2014-Oct-26 08:29N 53°25' W 003°00'0 0.0
2014-Oct-26 07:29N 53°25' W 003°00'0 0.0
2014-Oct-26 06:29N 53°25' W 003°00'0 0.0
2014-Oct-26 05:29N 53°25' W 003°00'0 0.0
2014-Oct-26 04:29N 53°25' W 003°00'0 0.0
2014-Oct-26 03:29N 53°25' W 003°00'0 0.0
2014-Oct-26 02:29N 53°25' W 003°00'0 0.0
2014-Oct-26 01:29N 53°25' W 003°00'0 0.0
2014-Oct-26 00:29N 53°25' W 003°00'0 0.0
2014-Oct-25 23:29N 53°25' W 003°00'0 0.0
2014-Oct-25 22:29N 53°25' W 003°00'0 0.0
2014-Oct-25 21:29N 53°25' W 003°00'0 0.0
2014-Oct-25 20:17N 53°25' W 003°00'0 0.0
2014-Oct-25 19:23N 53°25' W 003°00'0 0.0
2014-Oct-25 18:29N 53°25' W 003°00'0 0.0
2014-Oct-25 17:29N 53°25' W 003°00'0 0.0
2014-Oct-25 16:29N 53°25' W 003°00'0 0.0
2014-Oct-25 15:29N 53°25' W 003°00'0 0.0
2014-Oct-25 14:29N 53°25' W 003°00'0 0.0
2014-Oct-25 13:29N 53°25' W 003°00'0 0.0
2014-Oct-25 12:29N 53°25' W 003°00'0 0.0
2014-Oct-25 11:29N 53°25' W 003°00'0 0.0
2014-Oct-25 10:17N 53°25' W 003°00'0 0.0
2014-Oct-25 09:29N 53°25' W 003°00'0 0.0
2014-Oct-25 08:29N 53°25' W 003°00'0 0.0
2014-Oct-25 07:23N 53°25' W 003°00'0 0.0
2014-Oct-25 06:23N 53°25' W 003°00'0 0.0
2014-Oct-25 05:29N 53°25' W 003°00'0 0.0
2014-Oct-25 04:29N 53°25' W 003°00'1 0.5
2014-Oct-25 03:28N 53°26' W 003°00'1 1.5
2014-Oct-25 02:29N 53°27' W 003°01'0 0.1
2014-Oct-25 01:29N 53°27' W 003°01'0 0.2
2014-Oct-25 00:32N 53°27' W 003°01'0 0.2
2014-Oct-24 23:33N 53°27' W 003°01'0 0.3
2014-Oct-24 22:26N 53°27' W 003°01'1 1.2
2014-Oct-24 21:33N 53°27' W 003°03'2 1.5
2014-Oct-24 20:27N 53°26' W 003°01'0 0.2
2014-Oct-24 19:33N 53°27' W 003°01'1 1.1
2014-Oct-24 18:30N 53°25' W 003°00'0 0.0
2014-Oct-24 17:23N 53°25' W 003°00'0 0.0
2014-Oct-24 16:29N 53°25' W 003°00'0 0.0
2014-Oct-24 15:29N 53°25' W 003°00'2 1.9
2014-Oct-24 14:33N 53°27' W 003°01'0 0.2
2014-Oct-24 13:11N 53°27' W 003°01'1 1.0
2014-Oct-24 12:28N 53°27' W 003°02'1 0.8
2014-Oct-24 11:31N 53°27' W 003°01'2 2.0
2014-Oct-24 10:33N 53°25' W 003°01'2 1.7
2014-Oct-24 09:31N 53°23' W 003°00'1 0.7
2014-Oct-24 08:34N 53°23' W 002°60'3 3.4
2014-Oct-24 07:33N 53°26' W 003°01'1 0.5
2014-Oct-24 06:30N 53°27' W 003°01'0 0.0
2014-Oct-24 05:30N 53°27' W 003°01'0 0.0
2014-Oct-24 04:30N 53°27' W 003°01'0 0.0
2014-Oct-24 03:30N 53°27' W 003°01'0 0.0
2014-Oct-24 02:30N 53°27' W 003°01'0 0.0
2014-Oct-24 01:30N 53°27' W 003°01'0 0.0
2014-Oct-24 00:30N 53°27' W 003°01'0 0.2
2014-Oct-23 23:33N 53°27' W 003°01'1 0.5
2014-Oct-23 22:30N 53°27' W 003°01'0 0.4
2014-Oct-23 21:30N 53°27' W 003°01'2 1.6
2014-Oct-23 20:32N 53°28' W 003°03'1 1.5
2014-Oct-23 19:32N 53°27' W 003°01'2 1.5
2014-Oct-23 18:23N 53°25' W 003°00'0 0.0
2014-Oct-23 17:29N 53°25' W 003°00'0 0.0
2014-Oct-23 16:23N 53°25' W 003°00'0 0.0
2014-Oct-23 15:29N 53°25' W 003°00'0 0.0
2014-Oct-23 14:29N 53°25' W 003°00'0 0.0
2014-Oct-23 13:29N 53°25' W 003°00'0 0.0
2014-Oct-23 12:29N 53°25' W 003°00'0 0.0
2014-Oct-23 11:29N 53°25' W 003°00'0 0.0
2014-Oct-23 10:23N 53°25' W 003°00'0 0.0
2014-Oct-23 09:23N 53°25' W 003°00'0 0.0
2014-Oct-23 08:23N 53°25' W 003°00'0 0.0
2014-Oct-23 07:29N 53°25' W 003°00'0 0.0
2014-Oct-23 06:17N 53°25' W 003°00'0 0.0
2014-Oct-23 05:23N 53°25' W 003°00'0 0.0
2014-Oct-23 04:29N 53°25' W 003°00'0 0.0
2014-Oct-23 03:29N 53°25' W 003°00'0 0.0
2014-Oct-23 02:29N 53°25' W 003°00'0 0.0
2014-Oct-23 01:23N 53°25' W 003°00'0 0.0
2014-Oct-23 00:23N 53°25' W 003°00'0 0.0
2014-Oct-22 23:29N 53°25' W 003°00'0 0.0
2014-Oct-22 22:29N 53°25' W 003°00'0 0.0
2014-Oct-22 21:29N 53°25' W 003°00'0 0.0
2014-Oct-22 20:23N 53°25' W 003°00'0 0.0
2014-Oct-22 19:29N 53°25' W 003°00'0 0.0
2014-Oct-22 18:29N 53°25' W 003°00'0 0.0
2014-Oct-22 17:29N 53°25' W 003°00'0 0.0
2014-Oct-22 16:23N 53°25' W 003°00'0 0.0
2014-Oct-22 15:29N 53°25' W 003°00'0 0.0
2014-Oct-22 14:29N 53°25' W 003°00'0 0.0
2014-Oct-22 13:28N 53°25' W 003°00'0 0.0
2014-Oct-22 12:28N 53°25' W 003°00'0 0.0
2014-Oct-22 11:28N 53°25' W 003°00'0 0.0
2014-Oct-22 10:28N 53°25' W 003°00'1 1.0
2014-Oct-22 09:30N 53°26' W 003°01'4 3.2
2014-Oct-22 08:18N 53°23' W 002°60'0 0.0
2014-Oct-22 07:24N 53°23' W 002°60'0 0.0
2014-Oct-22 06:30N 53°23' W 002°60'0 0.0
2014-Oct-22 05:05N 53°23' W 002°60'0 0.0
2014-Oct-22 04:29N 53°23' W 002°60'0 0.0
2014-Oct-22 03:23N 53°23' W 002°60'0 0.0
2014-Oct-22 02:29N 53°23' W 002°60'0 0.0
2014-Oct-22 01:11N 53°23' W 002°60'0 0.0
2014-Oct-22 00:17N 53°23' W 002°60'0 0.0
2014-Oct-21 23:29N 53°23' W 002°60'0 0.0
2014-Oct-21 22:23N 53°23' W 002°60'0 0.0
2014-Oct-21 21:29N 53°23' W 002°60'0 0.0
2014-Oct-21 18:33N 53°23' W 002°60'0 0.0
2014-Oct-21 17:27N 53°23' W 002°60'0 0.0
2014-Oct-21 15:21N 53°23' W 002°60'0 0.0
2014-Oct-21 14:33N 53°23' W 002°60'0 0.0
2014-Oct-21 12:15N 53°23' W 002°60'0 0.0
2014-Oct-21 11:21N 53°23' W 002°60'  

Dump ship's entire track history